createdAt,value
2017-06-18T11:35:02.356Z,1019.69
2017-06-18T11:35:42.958Z,1019.68
2017-06-18T11:36:23.618Z,1019.73
2017-06-18T11:37:04.206Z,1019.68
2017-06-18T11:37:44.806Z,1019.68
2017-06-18T11:38:27.004Z,1019.63
2017-06-18T11:39:25.875Z,1019.66
2017-06-18T11:40:06.463Z,1019.69
2017-06-18T11:40:47.758Z,1019.68
2017-06-18T11:41:31.635Z,1019.64
2017-06-18T11:42:12.283Z,1019.66
2017-06-18T11:42:55.382Z,1019.68
2017-06-18T11:43:38.104Z,1019.63
2017-06-18T11:44:18.730Z,1019.6
2017-06-18T11:44:59.346Z,1019.6
2017-06-18T11:45:39.925Z,1019.62
2017-06-18T11:46:20.515Z,1019.58
2017-06-18T11:47:01.126Z,1019.57
2017-06-18T11:47:41.787Z,1019.59
2017-06-18T11:48:22.374Z,1019.57
2017-06-18T11:49:03.080Z,1019.56
2017-06-18T11:49:43.658Z,1019.55
2017-06-18T11:50:24.283Z,1019.56
2017-06-18T11:51:04.886Z,1019.57
2017-06-18T11:51:45.509Z,1019.56
2017-06-18T11:52:26.122Z,1019.52
2017-06-18T11:53:06.703Z,1019.51
2017-06-18T11:53:47.340Z,1019.52
2017-06-18T11:54:27.912Z,1019.53
2017-06-18T11:55:08.586Z,1019.54
2017-06-18T11:55:49.231Z,1019.52
2017-06-18T11:56:29.861Z,1019.51
2017-06-18T11:57:10.454Z,1019.53
2017-06-18T11:57:51.052Z,1019.57
2017-06-18T11:58:31.648Z,1019.54
2017-06-18T11:59:12.234Z,1019.53
2017-06-18T11:59:52.816Z,1019.53
2017-06-18T12:00:33.412Z,1019.52
2017-06-18T12:01:14.026Z,1019.54
2017-06-18T12:01:54.604Z,1019.55
2017-06-18T12:02:35.236Z,1019.51
2017-06-18T12:03:15.938Z,1019.52
2017-06-18T12:03:56.641Z,1019.49
2017-06-18T12:04:37.512Z,1019.51
2017-06-18T12:05:39.887Z,1019.51
2017-06-18T12:06:41.109Z,1019.52
2017-06-18T12:07:23.653Z,1019.49
2017-06-18T12:08:05.862Z,1019.47
2017-06-18T12:09:32.821Z,1019.45
2017-06-18T12:10:42.164Z,1019.48
2017-06-18T12:11:24.481Z,1019.46
2017-06-18T12:12:06.260Z,1019.45
2017-06-18T12:12:47.836Z,1019.45
2017-06-18T12:13:30.044Z,1019.45
2017-06-18T12:14:11.739Z,1019.41
2017-06-18T12:14:52.705Z,1019.41
2017-06-18T12:15:33.290Z,1019.42
2017-06-18T12:16:13.871Z,1019.43
2017-06-18T12:16:54.457Z,1019.39
2017-06-18T12:17:35.583Z,1019.4
2017-06-18T12:18:16.438Z,1019.42
2017-06-18T12:18:57.070Z,1019.4
2017-06-18T12:19:37.949Z,1019.44
2017-06-18T12:20:18.968Z,1019.46
2017-06-18T12:20:59.750Z,1019.47
2017-06-18T12:21:40.375Z,1019.51
2017-06-18T12:22:22.042Z,1019.48
2017-06-18T12:23:03.287Z,1019.5
2017-06-18T12:23:44.029Z,1019.47
2017-06-18T12:24:24.922Z,1019.44
2017-06-18T12:25:05.660Z,1019.44
2017-06-18T12:25:46.279Z,1019.39
2017-06-18T12:26:27.130Z,1019.44
2017-06-18T12:27:07.845Z,1019.48
2017-06-18T12:27:48.481Z,1019.47
2017-06-18T12:28:29.086Z,1019.47
2017-06-18T12:29:09.686Z,1019.42
2017-06-18T12:29:50.268Z,1019.42
2017-06-18T12:30:30.842Z,1019.41
2017-06-18T12:31:11.421Z,1019.39
2017-06-18T12:31:52.012Z,1019.39
2017-06-18T12:32:32.599Z,1019.37
2017-06-18T12:33:13.434Z,1019.4
2017-06-18T18:50:45.101Z,1018.36
2017-06-18T18:51:25.806Z,1018.33
2017-06-18T18:52:06.517Z,1018.31
2017-06-18T18:52:51.827Z,1018.34
2017-06-18T18:53:32.596Z,1018.35
2017-06-18T18:54:13.235Z,1018.33
2017-06-18T18:54:53.845Z,1018.33
2017-06-18T18:55:38.750Z,1018.33
2017-06-18T18:56:19.421Z,1018.36
2017-06-18T18:57:00.022Z,1018.37
2017-06-18T18:57:40.632Z,1018.34
2017-06-18T18:58:21.271Z,1018.33
2017-06-18T18:59:01.885Z,1018.33
2017-06-18T18:59:42.457Z,1018.31
2017-06-18T19:00:23.053Z,1018.32
2017-06-18T19:01:03.654Z,1018.35
2017-06-18T19:01:44.266Z,1018.36
2017-06-18T19:02:24.926Z,1018.34
2017-06-18T19:03:05.530Z,1018.37
2017-06-18T19:03:46.130Z,1018.41
2017-06-18T19:04:26.765Z,1018.4
2017-06-18T19:05:07.389Z,1018.43
2017-06-18T19:05:47.998Z,1018.41
2017-06-18T19:06:28.594Z,1018.43
2017-06-18T19:07:09.346Z,1018.41
2017-06-18T19:07:50.003Z,1018.4
2017-06-18T19:08:30.597Z,1018.39
2017-06-18T19:09:11.222Z,1018.41
2017-06-18T19:09:51.892Z,1018.44
2017-06-18T19:10:32.468Z,1018.39
2017-06-18T19:11:13.098Z,1018.39
2017-06-18T19:11:53.719Z,1018.41
2017-06-18T19:12:34.347Z,1018.4
2017-06-18T19:13:14.942Z,1018.41
2017-06-18T19:13:55.540Z,1018.43
2017-06-18T19:14:36.136Z,1018.42
2017-06-18T19:15:16.743Z,1018.45
2017-06-18T19:15:57.326Z,1018.44
2017-06-18T19:16:37.924Z,1018.48
2017-06-18T19:17:18.595Z,1018.46
2017-06-18T19:17:59.194Z,1018.49
2017-06-18T19:18:39.826Z,1018.5
2017-06-18T19:19:20.423Z,1018.49
2017-06-18T19:20:01.022Z,1018.49
2017-06-18T19:20:41.708Z,1018.5
2017-06-18T19:21:22.537Z,1018.54
2017-06-18T19:22:03.125Z,1018.51
2017-06-18T19:22:43.707Z,1018.51
2017-06-18T19:23:25.894Z,1018.49
2017-06-18T19:24:06.851Z,1018.52
2017-06-18T19:24:47.527Z,1018.51
2017-06-18T19:25:28.786Z,1018.47
2017-06-18T19:26:09.406Z,1018.5
2017-06-18T19:26:49.988Z,1018.5
2017-06-18T19:27:30.702Z,1018.49
2017-06-18T19:28:11.287Z,1018.49
2017-06-18T19:28:51.894Z,1018.51
2017-06-18T19:29:32.496Z,1018.5
2017-06-18T19:30:13.147Z,1018.48
2017-06-18T19:30:53.736Z,1018.47
2017-06-18T19:31:34.324Z,1018.52
2017-06-18T19:32:14.906Z,1018.54
2017-06-18T19:32:55.489Z,1018.53
2017-06-18T19:33:36.965Z,1018.5
2017-06-18T19:34:21.985Z,1018.52
2017-06-18T19:35:02.579Z,1018.53
2017-06-18T19:35:43.202Z,1018.5
2017-06-18T19:36:23.862Z,1018.57
2017-06-18T19:37:04.443Z,1018.54
2017-06-18T19:37:45.055Z,1018.56
2017-06-18T19:38:25.651Z,1018.55
2017-06-18T19:39:06.234Z,1018.56
2017-06-18T19:39:46.811Z,1018.58
2017-06-18T19:40:27.388Z,1018.56
2017-06-18T19:41:07.974Z,1018.58
2017-06-18T19:41:48.558Z,1018.56
2017-06-18T19:42:29.143Z,1018.6
2017-06-18T19:43:09.753Z,1018.61
2017-06-18T19:43:50.374Z,1018.59
2017-06-18T19:44:30.959Z,1018.59
2017-06-18T19:45:11.544Z,1018.57
2017-06-18T19:45:52.150Z,1018.54
2017-06-18T19:46:32.742Z,1018.57
2017-06-18T19:47:13.323Z,1018.6
2017-06-18T19:47:53.915Z,1018.59
2017-06-18T19:48:34.503Z,1018.58
2017-06-18T19:49:15.096Z,1018.6
2017-06-18T19:49:55.708Z,1018.61
2017-06-18T19:50:36.295Z,1018.64
2017-06-18T19:51:16.890Z,1018.6
2017-06-18T19:51:57.516Z,1018.67
2017-06-18T19:52:38.108Z,1018.67
2017-06-18T19:53:18.690Z,1018.66
2017-06-18T19:53:59.275Z,1018.65
2017-06-18T19:54:39.872Z,1018.65
2017-06-18T19:55:20.446Z,1018.63
2017-06-18T19:56:01.038Z,1018.65
2017-06-18T19:56:41.644Z,1018.69
2017-06-18T19:57:22.237Z,1018.66
2017-06-18T19:58:02.880Z,1018.66
2017-06-18T19:58:43.436Z,1018.69
2017-06-18T19:59:24.026Z,1018.67
2017-06-18T20:00:04.612Z,1018.64
2017-06-18T20:00:46.809Z,1018.68
2017-06-18T20:01:27.558Z,1018.64
2017-06-18T20:02:08.161Z,1018.66
2017-06-18T20:02:48.774Z,1018.61
2017-06-18T20:03:29.491Z,1018.63
2017-06-18T20:04:10.161Z,1018.66
2017-06-18T20:04:50.813Z,1018.66
2017-06-18T20:05:31.442Z,1018.64
2017-06-18T20:06:12.079Z,1018.64
2017-06-18T20:06:52.697Z,1018.7
2017-06-18T20:07:33.278Z,1018.68
2017-06-18T20:08:13.889Z,1018.66
2017-06-18T20:08:54.480Z,1018.7
2017-06-18T20:09:35.081Z,1018.68
2017-06-18T20:10:15.673Z,1018.66
2017-06-18T20:10:56.274Z,1018.7
2017-06-18T20:11:36.851Z,1018.67
2017-06-18T20:12:17.437Z,1018.68
2017-06-18T20:12:58.059Z,1018.71
2017-06-18T20:13:38.642Z,1018.7
2017-06-18T20:14:19.232Z,1018.71
2017-06-18T20:14:59.827Z,1018.69
2017-06-18T20:15:40.399Z,1018.72
2017-06-18T20:16:20.996Z,1018.73
2017-06-18T20:17:01.566Z,1018.71
2017-06-18T20:17:42.164Z,1018.71
2017-06-18T20:18:22.756Z,1018.73
2017-06-18T20:19:03.334Z,1018.77
2017-06-18T20:19:44.043Z,1018.73
2017-06-18T20:20:24.633Z,1018.74
2017-06-18T20:21:05.232Z,1018.75
2017-06-18T20:21:45.817Z,1018.74
2017-06-18T20:22:26.423Z,1018.77
2017-06-18T20:23:07.023Z,1018.68
2017-06-18T20:23:47.605Z,1018.78
2017-06-18T20:24:28.201Z,1018.77
2017-06-18T20:25:08.787Z,1018.75
2017-06-18T20:25:49.369Z,1018.77
2017-06-18T20:26:30.006Z,1018.75
2017-06-18T20:27:10.597Z,1018.74
2017-06-18T20:27:51.237Z,1018.72
2017-06-18T20:28:31.839Z,1018.72
2017-06-18T20:29:12.437Z,1018.71
2017-06-18T20:29:53.037Z,1018.69
2017-06-18T20:30:33.643Z,1018.7
2017-06-18T20:31:14.232Z,1018.72
2017-06-18T20:31:54.806Z,1018.66
2017-06-18T20:32:35.417Z,1018.67
2017-06-18T20:33:16.003Z,1018.62
2017-06-18T20:33:56.600Z,1018.72
2017-06-18T20:34:37.202Z,1018.68
2017-06-18T20:35:17.797Z,1018.65
2017-06-18T20:35:58.423Z,1018.69
2017-06-18T20:36:39.031Z,1018.7
2017-06-18T20:37:19.624Z,1018.71
2017-06-18T20:38:00.217Z,1018.7
2017-06-18T20:38:40.799Z,1018.72
2017-06-18T20:39:21.392Z,1018.68
2017-06-18T20:40:01.974Z,1018.73
2017-06-18T20:40:42.617Z,1018.71
2017-06-18T20:41:23.195Z,1018.71
2017-06-18T20:42:03.805Z,1018.72
2017-06-18T20:42:44.383Z,1018.72
2017-06-18T20:43:24.980Z,1018.68
2017-06-18T20:44:05.581Z,1018.71
2017-06-18T20:44:46.195Z,1018.77
2017-06-18T20:45:26.805Z,1018.78
2017-06-18T20:46:07.414Z,1018.74
2017-06-18T20:46:47.994Z,1018.75
2017-06-18T20:47:28.579Z,1018.75
2017-06-18T20:48:09.151Z,1018.75
2017-06-18T20:48:49.780Z,1018.74
2017-06-18T20:49:30.347Z,1018.76
2017-06-18T20:50:10.927Z,1018.76
2017-06-18T20:50:51.518Z,1018.75
2017-06-18T20:51:32.126Z,1018.79
2017-06-18T20:52:14.509Z,1018.82
2017-06-18T20:52:55.828Z,1018.8
2017-06-18T20:53:36.415Z,1018.83
2017-06-18T20:54:17.003Z,1018.81
2017-06-18T20:54:57.615Z,1018.84
2017-06-18T20:55:38.222Z,1018.83
2017-06-18T20:56:18.822Z,1018.82
2017-06-18T20:56:59.429Z,1018.85
2017-06-18T20:57:40.043Z,1018.86
2017-06-18T20:58:20.629Z,1018.86
2017-06-18T20:59:01.222Z,1018.87
2017-06-18T20:59:41.834Z,1018.9
2017-06-18T21:00:22.641Z,1018.86
2017-06-18T21:01:03.307Z,1018.93
2017-06-18T21:01:43.972Z,1018.9
2017-06-18T21:02:24.554Z,1018.93
2017-06-18T21:03:05.136Z,1018.87
2017-06-18T21:03:45.761Z,1018.91
2017-06-18T21:04:26.348Z,1018.9
2017-06-18T21:05:06.964Z,1018.94
2017-06-18T21:05:47.657Z,1018.89
2017-06-18T21:06:28.647Z,1018.95
2017-06-18T21:07:09.259Z,1018.92
2017-06-18T21:07:49.928Z,1018.9
2017-06-18T21:08:33.427Z,1018.92
2017-06-18T21:09:15.711Z,1018.92
2017-06-18T21:09:57.238Z,1018.9
2017-06-18T21:10:40.858Z,1018.87
2017-06-18T21:11:23.419Z,1018.88
2017-06-18T21:12:05.089Z,1018.87
2017-06-18T21:12:46.572Z,1018.89
2017-06-18T21:13:27.453Z,1018.91
2017-06-18T21:14:08.700Z,1018.91
2017-06-18T21:14:50.080Z,1018.94
2017-06-18T21:15:31.280Z,1018.91
2017-06-18T21:16:12.950Z,1018.93
2017-06-18T21:16:57.085Z,1018.91
2017-06-18T21:17:37.754Z,1018.92
2017-06-18T21:56:58.033Z,1018.87
2017-06-18T21:57:39.051Z,1018.82
2017-06-18T21:58:19.651Z,1018.87
2017-06-18T21:59:00.367Z,1018.86
2017-06-18T21:59:41.046Z,1018.87
2017-06-18T22:00:21.775Z,1018.91
2017-06-18T22:01:02.519Z,1018.89
2017-06-18T22:01:43.230Z,1018.93
2017-06-18T22:02:24.049Z,1018.89
2017-06-18T22:03:04.902Z,1018.88
2017-06-18T22:03:45.571Z,1018.88
2017-06-18T22:04:26.392Z,1018.91
2017-06-18T22:05:07.282Z,1018.87
2017-06-18T22:05:48.028Z,1018.92
2017-06-18T22:06:28.663Z,1018.93
2017-06-18T22:07:09.318Z,1018.87
2017-06-18T22:07:50.041Z,1018.94
2017-06-18T22:08:30.733Z,1018.95
2017-06-18T22:09:11.514Z,1018.95
2017-06-18T22:09:52.187Z,1018.95
2017-06-18T22:10:32.869Z,1018.95
2017-06-18T22:11:13.567Z,1018.96
2017-06-18T22:11:54.215Z,1018.95
2017-06-18T22:12:35.062Z,1018.97
2017-06-18T22:13:16.033Z,1018.97
2017-06-18T22:13:56.754Z,1018.95
2017-06-18T22:14:37.460Z,1018.97
2017-06-18T22:15:18.053Z,1018.99
2017-06-18T22:15:58.816Z,1018.99
2017-06-18T22:16:39.444Z,1018.99
2017-06-18T22:17:20.182Z,1019
2017-06-18T22:18:00.840Z,1018.95
2017-06-18T22:18:41.476Z,1018.96
2017-06-18T22:19:22.263Z,1018.96
2017-06-18T22:20:02.903Z,1019.02
2017-06-18T22:20:43.586Z,1018.99
2017-06-18T22:21:24.321Z,1018.98
2017-06-18T22:22:05.018Z,1018.97
2017-06-18T22:22:45.645Z,1018.95
2017-06-18T22:23:26.421Z,1018.94
2017-06-18T22:24:07.132Z,1018.96
2017-06-18T22:24:47.837Z,1018.95
2017-06-18T22:25:28.442Z,1018.92
2017-06-18T22:26:09.101Z,1018.92
2017-06-18T22:26:49.794Z,1018.96
2017-06-18T22:27:30.509Z,1018.89
2017-06-18T22:28:11.152Z,1018.94
2017-06-18T22:28:51.826Z,1018.91
2017-06-18T22:29:32.479Z,1018.93
2017-06-18T22:30:13.139Z,1018.91
2017-06-18T22:30:53.844Z,1018.91
2017-06-18T22:31:34.648Z,1018.91
2017-06-18T22:32:15.268Z,1018.92
2017-06-18T22:32:55.935Z,1018.92
2017-06-18T22:33:36.832Z,1018.88
2017-06-18T22:34:17.544Z,1018.93
2017-06-18T22:34:58.424Z,1018.89
2017-06-18T22:35:39.062Z,1018.93
2017-06-18T22:36:19.759Z,1018.92
2017-06-18T22:37:00.463Z,1018.92
2017-06-18T22:37:41.194Z,1018.88
2017-06-18T22:38:21.911Z,1018.86
2017-06-18T22:39:02.575Z,1018.88
2017-06-18T22:39:43.196Z,1018.87
2017-06-18T22:40:23.864Z,1018.89
2017-06-18T22:41:04.551Z,1018.89
2017-06-18T22:41:45.215Z,1018.85
2017-06-18T22:42:25.953Z,1018.85
2017-06-18T22:43:06.553Z,1018.83
2017-06-18T22:43:47.152Z,1018.84
2017-06-18T22:44:27.737Z,1018.84
2017-06-18T22:45:08.369Z,1018.81
2017-06-18T22:45:48.947Z,1018.81
2017-06-18T22:46:29.528Z,1018.78
2017-06-18T22:47:10.146Z,1018.81
2017-06-18T22:47:50.729Z,1018.83
2017-06-18T22:48:31.314Z,1018.83
2017-06-18T22:49:11.900Z,1018.84
2017-06-18T22:49:52.486Z,1018.81
2017-06-18T22:50:33.059Z,1018.83
2017-06-18T22:51:13.655Z,1018.83
2017-06-18T22:51:54.259Z,1018.82
2017-06-18T22:52:34.850Z,1018.83
2017-06-18T22:53:15.432Z,1018.85
2017-06-18T22:53:56.021Z,1018.87
2017-06-18T22:54:36.668Z,1018.88
2017-06-18T22:55:17.273Z,1018.86
2017-06-18T22:55:57.864Z,1018.89
2017-06-18T22:56:38.457Z,1018.87
2017-06-18T22:57:19.049Z,1018.86
2017-06-18T22:57:59.638Z,1018.88
2017-06-18T22:58:40.225Z,1018.83
2017-06-18T22:59:20.819Z,1018.88
2017-06-18T23:00:01.396Z,1018.86
2017-06-18T23:00:42.005Z,1018.85
2017-06-18T23:01:22.588Z,1018.83
2017-06-18T23:02:03.183Z,1018.83
2017-06-18T23:02:43.782Z,1018.82
2017-06-18T23:03:24.367Z,1018.84
2017-06-18T23:04:04.985Z,1018.88
2017-06-18T23:04:45.570Z,1018.85
2017-06-18T23:05:26.159Z,1018.82
2017-06-18T23:06:06.741Z,1018.82
2017-06-18T23:06:47.327Z,1018.82
2017-06-18T23:07:27.958Z,1018.84
2017-06-18T23:08:08.533Z,1018.82
2017-06-18T23:08:49.135Z,1018.82
2017-06-18T23:09:29.725Z,1018.83
2017-06-18T23:10:10.329Z,1018.85
2017-06-18T23:10:50.937Z,1018.79
2017-06-18T23:11:31.519Z,1018.83
2017-06-18T23:12:12.140Z,1018.84
2017-06-18T23:12:52.735Z,1018.83
2017-06-18T23:13:33.300Z,1018.78
2017-06-18T23:14:13.921Z,1018.84
2017-06-18T23:14:54.484Z,1018.83
2017-06-18T23:15:35.079Z,1018.83
2017-06-18T23:16:15.680Z,1018.84
2017-06-18T23:16:56.262Z,1018.84
2017-06-18T23:17:36.937Z,1018.85
2017-06-18T23:18:17.445Z,1018.87
2017-06-18T23:18:58.067Z,1018.84
2017-06-18T23:19:38.661Z,1018.82
2017-06-18T23:20:19.264Z,1018.84
2017-06-18T23:20:59.844Z,1018.82
2017-06-18T23:21:40.436Z,1018.83
2017-06-18T23:22:21.056Z,1018.85
2017-06-18T23:23:01.638Z,1018.87
2017-06-18T23:23:42.462Z,1018.87
2017-06-18T23:24:23.070Z,1018.85
2017-06-18T23:25:03.664Z,1018.8
2017-06-18T23:25:44.289Z,1018.83
2017-06-18T23:26:24.870Z,1018.85
2017-06-18T23:27:05.490Z,1018.85
2017-06-18T23:27:46.082Z,1018.87
2017-06-18T23:28:26.676Z,1018.81
2017-06-18T23:29:07.269Z,1018.84
2017-06-18T23:29:47.845Z,1018.85
2017-06-18T23:30:28.439Z,1018.85
2017-06-18T23:31:09.023Z,1018.84
2017-06-18T23:31:49.622Z,1018.85
2017-06-18T23:32:30.198Z,1018.84
2017-06-18T23:33:10.816Z,1018.84
2017-06-18T23:33:51.436Z,1018.82
2017-06-18T23:34:32.008Z,1018.82
2017-06-18T23:35:12.587Z,1018.79
2017-06-18T23:35:53.257Z,1018.77
2017-06-18T23:36:33.859Z,1018.77
2017-06-18T23:37:14.463Z,1018.77
2017-06-18T23:37:55.047Z,1018.78
2017-06-18T23:38:35.630Z,1018.77
2017-06-18T23:39:16.213Z,1018.75
2017-06-18T23:39:56.815Z,1018.74
2017-06-18T23:40:37.398Z,1018.75
2017-06-18T23:41:17.974Z,1018.76
2017-06-18T23:41:58.562Z,1018.76
2017-06-18T23:42:39.150Z,1018.72
2017-06-18T23:43:19.727Z,1018.74
2017-06-18T23:44:00.297Z,1018.74
2017-06-18T23:44:40.885Z,1018.74
2017-06-18T23:45:21.481Z,1018.7
2017-06-18T23:46:02.053Z,1018.72
2017-06-18T23:46:42.629Z,1018.73
2017-06-18T23:47:23.214Z,1018.73
2017-06-18T23:48:03.815Z,1018.72
2017-06-18T23:48:44.401Z,1018.72
2017-06-18T23:49:24.987Z,1018.72
2017-06-18T23:50:05.576Z,1018.73
2017-06-18T23:50:46.367Z,1018.74
2017-06-18T23:51:26.958Z,1018.75
2017-06-18T23:52:07.568Z,1018.72
2017-06-18T23:52:48.152Z,1018.73
2017-06-18T23:53:28.783Z,1018.72
2017-06-18T23:54:09.364Z,1018.72
2017-06-18T23:54:49.956Z,1018.74
2017-06-18T23:55:30.734Z,1018.72
2017-06-18T23:56:11.322Z,1018.7
2017-06-18T23:56:51.903Z,1018.69
2017-06-18T23:57:32.484Z,1018.71
2017-06-18T23:58:13.083Z,1018.66
2017-06-18T23:58:53.677Z,1018.7
2017-06-18T23:59:34.272Z,1018.63
